Time;durP1;ratioP1;P1;durP2;ratioP2;P2;SDS_P1;SDS_P2;PMS_P1;PMS_P2;Temp;Humidity;BMP_temperature;BMP_pressure;BME280_temperature;BME280_humidity;BME280_pressure;Samples;Min_cycle;Max_cycle;Signal;HPM_P1;HPM_P2
2022/03/28 00:02:05;;;;;;;40.00;15.52;;;;;;;;;;4931522;28;20113;-64
2022/03/28 00:04:30;;;;;;;44.75;16.40;;;;;;;;;;4930111;28;20066;-64
2022/03/28 00:06:56;;;;;;;48.72;16.38;;;;;;;;;;4931133;28;20444;-64
2022/03/28 00:09:21;;;;;;;41.13;15.65;;;;;;;;;;4931522;28;20513;-64
2022/03/28 00:11:46;;;;;;;39.83;16.10;;;;;;;;;;4931194;28;20030;-64
2022/03/28 00:14:12;;;;;;;45.75;16.92;;;;;;;;;;4932270;28;20418;-64
2022/03/28 00:16:37;;;;;;;39.67;16.48;;;;;;;;;;4930958;28;20536;-65
2022/03/28 00:19:03;;;;;;;43.88;16.17;;;;;;;;;;4932143;28;20034;-65
2022/03/28 00:21:28;;;;;;;44.92;16.67;;;;;;;;;;4931321;28;20430;-64
2022/03/28 00:23:53;;;;;;;45.17;17.45;;;;;;;;;;4931295;28;20588;-64
2022/03/28 00:26:19;;;;;;;47.03;16.52;;;;;;;;;;4932040;28;20349;-65
2022/03/28 00:28:45;;;;;;;38.05;14.98;;;;;;;;;;4931127;28;20387;-65
2022/03/28 00:31:11;;;;;;;44.72;16.52;;;;;;;;;;4930831;28;20312;-64
2022/03/28 00:33:36;;;;;;;39.20;15.20;;;;;;;;;;4930812;28;20497;-64
2022/03/28 00:36:02;;;;;;;42.88;15.30;;;;;;;;;;4930866;28;20034;-65
2022/03/28 00:38:27;;;;;;;39.60;14.10;;;;;;;;;;4930272;28;20042;-65
2022/03/28 00:40:53;;;;;;;33.15;14.13;;;;;;;;;;4930139;28;20485;-65
2022/03/28 00:43:18;;;;;;;38.42;14.57;;;;;;;;;;4930313;28;20401;-64
2022/03/28 00:45:44;;;;;;;38.13;14.18;;;;;;;;;;4930629;28;20477;-64
2022/03/28 00:48:11;;;;;;;34.25;14.65;;;;;;;;;;4930641;28;20430;-64
2022/03/28 00:50:37;;;;;;;38.38;13.80;;;;;;;;;;4930371;28;20129;-64
2022/03/28 00:53:05;;;;;;;38.20;15.05;;;;;;;;;;4932413;28;20298;-64
2022/03/28 00:55:30;;;;;;;40.42;15.55;;;;;;;;;;4930697;28;20413;-64
2022/03/28 00:57:56;;;;;;;42.88;14.98;;;;;;;;;;4930711;28;20496;-64
2022/03/28 01:00:21;;;;;;;32.63;13.90;;;;;;;;;;4931296;28;20085;-64
2022/03/28 01:02:47;;;;;;;36.67;13.45;;;;;;;;;;4941062;28;20512;-64
2022/03/28 01:05:13;;;;;;;40.17;13.48;;;;;;;;;;4951348;28;20353;-64
2022/03/28 01:07:39;;;;;;;32.92;13.65;;;;;;;;;;4947791;28;20093;-63
2022/03/28 01:10:05;;;;;;;39.92;15.13;;;;;;;;;;4951206;28;20495;-64
2022/03/28 01:12:32;;;;;;;36.45;13.88;;;;;;;;;;4947814;28;20345;-64
2022/03/28 01:14:58;;;;;;;38.95;14.32;;;;;;;;;;4949984;28;20539;-65
2022/03/28 01:20:08;;;;;;;33.70;13.25;;;;;;;;;;4950534;28;20393;-65
2022/03/28 01:22:34;;;;;;;35.13;13.00;;;;;;;;;;4938209;28;20489;-64
2022/03/28 01:25:00;;;;;;;32.97;13.40;;;;;;;;;;4949763;28;20501;-64
2022/03/28 01:27:26;;;;;;;39.25;14.10;;;;;;;;;;4949520;28;20057;-64
2022/03/28 01:29:52;;;;;;;33.40;13.15;;;;;;;;;;4950716;28;20355;-64
2022/03/28 01:32:17;;;;;;;35.85;14.52;;;;;;;;;;4949366;28;20034;-65
2022/03/28 01:34:42;;;;;;;39.17;14.00;;;;;;;;;;4949552;28;20534;-64
2022/03/28 01:37:08;;;;;;;30.05;12.93;;;;;;;;;;4949520;28;20528;-64
2022/03/28 01:39:33;;;;;;;34.75;13.43;;;;;;;;;;4949085;28;20367;-64
2022/03/28 01:41:58;;;;;;;36.50;13.57;;;;;;;;;;4949260;28;20536;-64
2022/03/28 01:44:25;;;;;;;32.30;13.20;;;;;;;;;;4953004;28;20428;-65
2022/03/28 01:46:50;;;;;;;33.15;13.10;;;;;;;;;;4952881;28;20034;-64
2022/03/28 01:49:18;;;;;;;33.45;13.65;;;;;;;;;;4952881;28;20029;-63
2022/03/28 01:51:43;;;;;;;31.17;12.25;;;;;;;;;;4954163;28;20398;-63
2022/03/28 01:54:09;;;;;;;37.22;12.70;;;;;;;;;;4953821;28;20503;-65
2022/03/28 01:56:35;;;;;;;35.20;13.73;;;;;;;;;;4953777;28;20449;-63
2022/03/28 01:59:02;;;;;;;30.90;12.98;;;;;;;;;;4952835;28;20364;-63
2022/03/28 02:01:27;;;;;;;30.45;12.35;;;;;;;;;;4952932;28;20345;-65
2022/03/28 02:03:52;;;;;;;32.28;13.25;;;;;;;;;;4952777;28;20352;-64
2022/03/28 02:06:18;;;;;;;36.15;12.82;;;;;;;;;;4952866;28;20484;-64
2022/03/28 02:08:43;;;;;;;31.50;12.02;;;;;;;;;;4952965;28;20410;-64
2022/03/28 02:11:08;;;;;;;31.20;13.52;;;;;;;;;;4952925;28;20460;-63
2022/03/28 02:13:34;;;;;;;35.65;12.43;;;;;;;;;;4952318;28;20503;-65
2022/03/28 02:16:00;;;;;;;32.53;12.25;;;;;;;;;;4952671;28;20502;-64
2022/03/28 02:18:26;;;;;;;34.30;13.15;;;;;;;;;;4952689;28;20372;-64
2022/03/28 02:20:52;;;;;;;33.08;11.63;;;;;;;;;;4952732;28;20368;-64
2022/03/28 02:23:17;;;;;;;38.50;13.70;;;;;;;;;;4952223;28;20528;-64
2022/03/28 02:25:42;;;;;;;29.02;11.38;;;;;;;;;;4952395;28;20396;-63
2022/03/28 02:28:08;;;;;;;31.17;11.90;;;;;;;;;;4952327;28;20459;-64
2022/03/28 02:30:33;;;;;;;28.70;11.77;;;;;;;;;;4952256;28;20433;-64
2022/03/28 02:32:58;;;;;;;30.83;11.57;;;;;;;;;;4953533;28;20405;-65
2022/03/28 02:35:24;;;;;;;31.13;12.07;;;;;;;;;;4952283;28;20326;-65
2022/03/28 02:37:50;;;;;;;25.48;10.55;;;;;;;;;;4952563;28;20326;-64
2022/03/28 02:40:15;;;;;;;32.05;12.90;;;;;;;;;;4952159;28;20365;-64
2022/03/28 02:42:41;;;;;;;25.77;11.55;;;;;;;;;;4951545;28;20369;-64
2022/03/28 02:45:07;;;;;;;30.58;11.60;;;;;;;;;;4952624;28;20329;-64
2022/03/28 02:47:32;;;;;;;32.22;12.40;;;;;;;;;;4953423;28;20030;-64
2022/03/28 02:49:57;;;;;;;24.30;11.00;;;;;;;;;;4951981;28;20030;-64
2022/03/28 02:52:23;;;;;;;29.30;10.48;;;;;;;;;;4953426;28;20034;-63
2022/03/28 02:54:49;;;;;;;26.00;10.45;;;;;;;;;;4951054;28;20377;-64
2022/03/28 02:57:14;;;;;;;39.35;11.60;;;;;;;;;;4952619;28;20444;-64
2022/03/28 02:59:40;;;;;;;29.98;10.82;;;;;;;;;;4952045;28;20294;-64
2022/03/28 03:02:05;;;;;;;27.33;11.20;;;;;;;;;;4951679;28;20295;-65
2022/03/28 03:04:32;;;;;;;28.45;11.25;;;;;;;;;;4951620;28;20345;-64
2022/03/28 03:06:57;;;;;;;28.45;11.07;;;;;;;;;;4951679;28;20469;-64
2022/03/28 03:09:23;;;;;;;26.20;10.55;;;;;;;;;;4951762;28;20393;-64
2022/03/28 03:11:48;;;;;;;31.90;11.73;;;;;;;;;;4951303;28;20030;-65
2022/03/28 03:14:13;;;;;;;29.38;11.95;;;;;;;;;;4951917;28;20532;-65
2022/03/28 03:16:40;;;;;;;31.08;11.63;;;;;;;;;;4951434;28;20368;-64
2022/03/28 03:19:06;;;;;;;28.15;11.32;;;;;;;;;;4952325;28;20088;-64
2022/03/28 03:21:31;;;;;;;31.98;12.20;;;;;;;;;;4951750;28;20457;-64
2022/03/28 03:23:56;;;;;;;30.05;12.10;;;;;;;;;;4951458;28;20458;-64
2022/03/28 03:26:22;;;;;;;26.45;11.05;;;;;;;;;;4951450;28;20365;-64
2022/03/28 03:28:47;;;;;;;33.42;11.30;;;;;;;;;;4951888;28;20029;-64
2022/03/28 03:31:12;;;;;;;36.42;11.93;;;;;;;;;;4951277;28;20422;-64
2022/03/28 03:33:38;;;;;;;29.02;11.48;;;;;;;;;;4966123;28;20133;-64
2022/03/28 03:36:04;;;;;;;34.40;12.52;;;;;;;;;;4952595;28;20097;-65
2022/03/28 03:38:30;;;;;;;32.45;12.15;;;;;;;;;;4953337;28;20694;-65
2022/03/28 03:40:55;;;;;;;36.45;13.73;;;;;;;;;;4950944;28;20345;-64
2022/03/28 03:43:21;;;;;;;27.52;10.70;;;;;;;;;;4951649;28;20442;-64
2022/03/28 03:45:47;;;;;;;26.02;10.63;;;;;;;;;;4951027;28;20052;-63
2022/03/28 03:48:12;;;;;;;28.92;11.10;;;;;;;;;;4951081;28;20418;-65
2022/03/28 03:50:38;;;;;;;30.90;12.18;;;;;;;;;;4950841;28;20513;-64
2022/03/28 03:53:03;;;;;;;31.83;11.23;;;;;;;;;;4950888;28;20444;-64
2022/03/28 03:55:28;;;;;;;28.65;12.15;;;;;;;;;;4950887;28;20443;-64
2022/03/28 03:57:54;;;;;;;28.80;12.50;;;;;;;;;;4950573;28;20025;-64
2022/03/28 04:00:19;;;;;;;23.40;10.43;;;;;;;;;;4951704;28;20445;-65
2022/03/28 04:02:45;;;;;;;31.85;12.77;;;;;;;;;;4950953;28;20377;-64
2022/03/28 04:05:10;;;;;;;28.77;10.48;;;;;;;;;;4951196;28;20334;-65
2022/03/28 04:07:36;;;;;;;31.67;12.45;;;;;;;;;;4951544;28;20424;-66
2022/03/28 04:10:02;;;;;;;25.52;11.65;;;;;;;;;;4950952;28;20307;-64
2022/03/28 04:12:27;;;;;;;25.58;10.70;;;;;;;;;;4950568;28;20044;-64
2022/03/28 04:14:57;;;;;;;28.83;11.27;;;;;;;;;;4950747;28;20030;-64
2022/03/28 04:17:23;;;;;;;29.60;12.23;;;;;;;;;;4950169;28;20033;-64
2022/03/28 04:19:48;;;;;;;30.58;12.18;;;;;;;;;;4950432;28;20441;-64
2022/03/28 04:22:13;;;;;;;32.78;12.25;;;;;;;;;;4950286;28;20449;-64
2022/03/28 04:24:39;;;;;;;30.52;12.00;;;;;;;;;;4950356;28;20148;-65
2022/03/28 04:27:04;;;;;;;28.95;12.02;;;;;;;;;;4950597;28;20560;-64
2022/03/28 04:29:29;;;;;;;26.13;11.63;;;;;;;;;;4950095;28;20061;-65
2022/03/28 04:31:55;;;;;;;30.13;12.20;;;;;;;;;;4950195;28;20446;-64
2022/03/28 04:34:20;;;;;;;30.85;11.57;;;;;;;;;;4950175;28;20033;-64
2022/03/28 04:36:45;;;;;;;31.23;12.23;;;;;;;;;;4950067;28;20315;-64
2022/03/28 04:39:11;;;;;;;32.92;12.52;;;;;;;;;;4951919;28;20393;-64
2022/03/28 04:41:36;;;;;;;29.20;12.35;;;;;;;;;;4949399;28;20046;-64
2022/03/28 04:44:04;;;;;;;29.83;12.20;;;;;;;;;;4950043;28;20457;-64
2022/03/28 04:46:29;;;;;;;34.03;12.90;;;;;;;;;;4950773;28;20333;-64
2022/03/28 04:48:55;;;;;;;33.22;13.35;;;;;;;;;;4950403;28;20421;-64
2022/03/28 04:51:20;;;;;;;29.10;12.15;;;;;;;;;;4950185;28;20444;-64
2022/03/28 04:53:45;;;;;;;28.35;11.95;;;;;;;;;;4950410;28;20441;-64
2022/03/28 04:56:11;;;;;;;26.58;11.07;;;;;;;;;;4950430;28;20457;-65
2022/03/28 04:58:36;;;;;;;42.90;13.80;;;;;;;;;;4950638;28;20479;-65
2022/03/28 05:01:01;;;;;;;34.95;13.10;;;;;;;;;;4949971;28;20442;-64
2022/03/28 05:03:27;;;;;;;34.55;11.68;;;;;;;;;;4950602;28;20318;-64
2022/03/28 05:05:52;;;;;;;38.58;13.95;;;;;;;;;;4950217;28;20517;-65
2022/03/28 05:08:19;;;;;;;39.58;13.80;;;;;;;;;;4950276;28;20421;-64
2022/03/28 05:10:44;;;;;;;43.83;15.32;;;;;;;;;;4950948;28;20433;-64
2022/03/28 05:13:10;;;;;;;35.75;12.60;;;;;;;;;;4950268;28;20480;-64
2022/03/28 05:15:35;;;;;;;31.63;12.52;;;;;;;;;;4951288;28;20026;-64
2022/03/28 05:18:01;;;;;;;46.78;13.95;;;;;;;;;;4949892;28;20397;-64
2022/03/28 05:20:26;;;;;;;41.22;13.40;;;;;;;;;;4949704;28;20476;-64
2022/03/28 05:22:51;;;;;;;43.30;14.38;;;;;;;;;;4949863;28;20069;-64
2022/03/28 05:25:17;;;;;;;41.60;14.73;;;;;;;;;;4950437;28;20026;-65
2022/03/28 05:27:44;;;;;;;45.25;14.98;;;;;;;;;;4949654;28;20418;-64
2022/03/28 05:30:10;;;;;;;40.42;14.88;;;;;;;;;;4949653;28;20377;-64
2022/03/28 05:32:35;;;;;;;40.42;14.57;;;;;;;;;;4950205;28;20364;-64
2022/03/28 05:35:01;;;;;;;38.63;14.82;;;;;;;;;;4949929;28;20484;-64
2022/03/28 05:37:26;;;;;;;35.50;14.20;;;;;;;;;;4951155;28;20492;-64
2022/03/28 05:39:51;;;;;;;45.35;15.48;;;;;;;;;;4951183;28;20479;-63
2022/03/28 05:42:17;;;;;;;43.90;13.98;;;;;;;;;;4947397;28;20481;-65
2022/03/28 05:44:43;;;;;;;44.45;15.55;;;;;;;;;;4949352;28;20407;-65
2022/03/28 05:47:08;;;;;;;45.67;15.45;;;;;;;;;;4948439;28;20660;-64
2022/03/28 05:49:33;;;;;;;46.00;15.77;;;;;;;;;;4950497;28;20416;-64
2022/03/28 05:52:00;;;;;;;53.90;17.70;;;;;;;;;;4950197;28;20388;-65
2022/03/28 05:54:25;;;;;;;47.72;15.25;;;;;;;;;;4950173;28;20488;-65
2022/03/28 05:56:51;;;;;;;45.72;17.25;;;;;;;;;;4949220;28;20460;-64
2022/03/28 05:59:16;;;;;;;47.67;16.23;;;;;;;;;;4949774;28;20473;-65
2022/03/28 06:01:42;;;;;;;56.90;16.45;;;;;;;;;;4948129;28;20342;-65
2022/03/28 06:04:07;;;;;;;48.78;17.63;;;;;;;;;;4949891;28;20354;-64
2022/03/28 06:06:33;;;;;;;45.65;16.27;;;;;;;;;;4950021;28;20392;-64
2022/03/28 06:08:58;;;;;;;45.10;16.50;;;;;;;;;;4949624;28;20460;-64
2022/03/28 06:11:24;;;;;;;59.75;17.02;;;;;;;;;;4949438;28;20376;-64
2022/03/28 06:13:49;;;;;;;46.63;16.30;;;;;;;;;;4949407;28;20477;-64
2022/03/28 06:16:15;;;;;;;47.85;15.98;;;;;;;;;;4949358;28;20090;-65
2022/03/28 06:18:40;;;;;;;48.35;16.52;;;;;;;;;;4949593;28;20499;-64
2022/03/28 06:21:07;;;;;;;45.17;16.17;;;;;;;;;;4949528;28;20433;-64
2022/03/28 06:23:35;;;;;;;43.33;15.85;;;;;;;;;;4949130;28;20572;-66
2022/03/28 06:26:02;;;;;;;41.92;16.05;;;;;;;;;;4949346;28;20425;-65
2022/03/28 06:28:27;;;;;;;43.20;15.55;;;;;;;;;;4950117;28;20505;-65
2022/03/28 06:30:53;;;;;;;41.10;15.30;;;;;;;;;;4952913;28;20326;-65
2022/03/28 06:33:18;;;;;;;43.55;14.73;;;;;;;;;;4952644;28;20026;-65
2022/03/28 06:35:45;;;;;;;36.15;14.48;;;;;;;;;;4952991;28;20396;-65
2022/03/28 06:38:10;;;;;;;42.17;15.05;;;;;;;;;;4953255;28;20530;-65
2022/03/28 06:40:35;;;;;;;44.33;13.98;;;;;;;;;;4952587;28;20492;-64
2022/03/28 06:43:01;;;;;;;50.75;16.60;;;;;;;;;;4952623;28;20100;-65
2022/03/28 06:45:26;;;;;;;37.42;13.43;;;;;;;;;;4952653;28;20433;-68
2022/03/28 06:47:52;;;;;;;34.85;14.40;;;;;;;;;;4952396;28;20421;-65
2022/03/28 06:50:19;;;;;;;39.97;13.98;;;;;;;;;;4952927;28;20421;-64
2022/03/28 06:52:45;;;;;;;39.05;15.38;;;;;;;;;;4952308;28;20037;-65
2022/03/28 06:55:10;;;;;;;34.85;13.60;;;;;;;;;;4954014;28;20096;-64
2022/03/28 06:57:36;;;;;;;37.60;14.93;;;;;;;;;;4952312;28;20354;-65
2022/03/28 07:00:03;;;;;;;37.35;14.02;;;;;;;;;;4953159;28;20397;-65
2022/03/28 07:02:30;;;;;;;34.78;13.57;;;;;;;;;;4953127;28;20416;-65
2022/03/28 07:04:55;;;;;;;42.85;14.48;;;;;;;;;;4952379;28;20449;-65
2022/03/28 07:07:21;;;;;;;38.58;14.18;;;;;;;;;;4947357;28;20110;-65
2022/03/28 07:09:46;;;;;;;52.67;16.05;;;;;;;;;;4932819;28;20469;-65
2022/03/28 07:12:11;;;;;;;41.10;13.88;;;;;;;;;;4932812;28;20352;-65
2022/03/28 07:14:37;;;;;;;37.92;12.68;;;;;;;;;;4932112;28;20513;-65
2022/03/28 07:17:02;;;;;;;42.80;14.85;;;;;;;;;;4932001;28;20533;-65
2022/03/28 07:19:28;;;;;;;43.38;13.88;;;;;;;;;;4933199;28;20405;-65
2022/03/28 07:21:54;;;;;;;36.75;13.60;;;;;;;;;;4931859;28;20342;-65
2022/03/28 07:24:20;;;;;;;33.75;13.65;;;;;;;;;;4931792;28;20442;-65
2022/03/28 07:26:48;;;;;;;32.33;13.63;;;;;;;;;;4915686;28;20536;-65
2022/03/28 07:29:15;;;;;;;33.63;13.02;;;;;;;;;;4939018;28;20422;-66
2022/03/28 07:31:41;;;;;;;37.08;12.70;;;;;;;;;;4932406;28;20397;-65
2022/03/28 07:36:51;;;;;;;31.23;12.82;;;;;;;;;;4933000;28;20528;-65
2022/03/28 07:39:18;;;;;;;31.63;12.32;;;;;;;;;;4933542;28;20394;-65
2022/03/28 07:41:44;;;;;;;34.03;12.75;;;;;;;;;;4930985;28;20532;-65
2022/03/28 07:44:09;;;;;;;31.88;12.07;;;;;;;;;;4932495;28;20430;-65
2022/03/28 07:46:34;;;;;;;33.67;11.77;;;;;;;;;;4931925;28;20453;-67
2022/03/28 07:49:00;;;;;;;33.38;13.48;;;;;;;;;;4932672;28;20541;-65
2022/03/28 07:51:25;;;;;;;33.53;12.95;;;;;;;;;;4932533;28;20390;-65
2022/03/28 07:53:50;;;;;;;29.98;11.88;;;;;;;;;;4932786;28;20440;-65
2022/03/28 07:56:16;;;;;;;37.65;12.15;;;;;;;;;;4931807;28;20030;-65
2022/03/28 07:58:41;;;;;;;36.97;11.57;;;;;;;;;;4931641;28;20430;-65
2022/03/28 08:01:06;;;;;;;32.08;12.48;;;;;;;;;;4931718;28;20350;-65
2022/03/28 08:03:33;;;;;;;34.83;12.45;;;;;;;;;;4931754;28;20414;-65
2022/03/28 08:05:58;;;;;;;35.50;12.23;;;;;;;;;;4931980;28;20109;-65
2022/03/28 08:08:23;;;;;;;27.65;11.05;;;;;;;;;;4932140;28;20030;-65
2022/03/28 08:10:49;;;;;;;39.35;11.75;;;;;;;;;;4932215;28;20400;-65
2022/03/28 08:13:14;;;;;;;38.17;12.15;;;;;;;;;;4933128;28;20418;-65
2022/03/28 08:15:40;;;;;;;39.30;11.63;;;;;;;;;;4931779;28;20456;-65
2022/03/28 08:18:06;;;;;;;30.88;12.52;;;;;;;;;;4932178;28;20334;-65
2022/03/28 08:20:31;;;;;;;35.13;12.15;;;;;;;;;;4931715;28;20513;-65
2022/03/28 08:22:59;;;;;;;34.20;12.30;;;;;;;;;;4931791;28;20421;-66
2022/03/28 08:25:24;;;;;;;30.70;13.05;;;;;;;;;;4931402;28;20176;-65
2022/03/28 08:27:50;;;;;;;35.20;12.73;;;;;;;;;;4931733;28;20030;-65
2022/03/28 08:30:15;;;;;;;27.73;10.73;;;;;;;;;;4931408;28;20497;-65
2022/03/28 08:32:42;;;;;;;34.03;11.77;;;;;;;;;;4930941;28;20436;-65
2022/03/28 08:35:07;;;;;;;35.58;12.15;;;;;;;;;;4931377;28;20034;-65
2022/03/28 08:37:33;;;;;;;26.88;10.52;;;;;;;;;;4931500;28;20500;-65
2022/03/28 08:39:59;;;;;;;38.05;12.05;;;;;;;;;;4931121;28;20448;-65
2022/03/28 08:42:25;;;;;;;28.73;11.43;;;;;;;;;;4930411;28;20469;-65
2022/03/28 08:44:51;;;;;;;33.72;11.20;;;;;;;;;;4930739;28;20177;-65
2022/03/28 08:47:17;;;;;;;34.50;10.75;;;;;;;;;;4931560;28;20026;-65
2022/03/28 08:49:43;;;;;;;28.95;11.77;;;;;;;;;;4930751;28;20505;-65
2022/03/28 08:52:08;;;;;;;32.97;11.98;;;;;;;;;;4931390;28;20345;-65
2022/03/28 08:54:34;;;;;;;31.50;12.10;;;;;;;;;;4932299;28;20413;-65
2022/03/28 08:56:59;;;;;;;30.33;9.88;;;;;;;;;;4933053;28;20410;-66
2022/03/28 08:59:25;;;;;;;28.08;11.68;;;;;;;;;;4932158;28;20402;-65
2022/03/28 09:01:50;;;;;;;35.58;11.88;;;;;;;;;;4930784;28;20504;-65
2022/03/28 09:04:16;;;;;;;35.28;12.07;;;;;;;;;;4930719;28;20511;-65
2022/03/28 09:06:43;;;;;;;30.33;12.02;;;;;;;;;;4932345;28;20373;-65
2022/03/28 09:09:12;;;;;;;34.92;11.82;;;;;;;;;;4930463;28;20215;-66
2022/03/28 09:11:39;;;;;;;27.95;11.07;;;;;;;;;;4929101;28;20349;-65
2022/03/28 09:14:04;;;;;;;26.40;11.07;;;;;;;;;;4930952;28;20398;-65
2022/03/28 09:16:34;;;;;;;25.58;10.30;;;;;;;;;;4930645;28;20405;-65
2022/03/28 09:19:01;;;;;;;29.52;10.65;;;;;;;;;;4930837;28;20389;-65
2022/03/28 09:21:26;;;;;;;30.52;12.45;;;;;;;;;;4928908;28;20034;-65
2022/03/28 09:23:52;;;;;;;27.67;11.27;;;;;;;;;;4930460;28;20536;-65
2022/03/28 09:26:22;;;;;;;31.80;9.90;;;;;;;;;;4930360;28;20369;-65
2022/03/28 09:28:58;;;;;;;34.33;11.30;;;;;;;;;;4930563;28;20354;-65
2022/03/28 09:31:50;;;;;;;26.48;10.32;;;;;;;;;;4932011;28;20446;-65
2022/03/28 09:34:17;;;;;;;20.55;9.20;;;;;;;;;;4929146;28;20046;-65
2022/03/28 09:36:54;;;;;;;26.75;10.07;;;;;;;;;;4930635;28;20449;-65
2022/03/28 09:39:21;;;;;;;26.15;10.55;;;;;;;;;;4930391;28;20452;-65
2022/03/28 09:41:59;;;;;;;26.75;8.68;;;;;;;;;;4929949;28;20351;-65
2022/03/28 09:44:37;;;;;;;28.15;9.70;;;;;;;;;;4930044;28;20520;-65
2022/03/28 09:47:13;;;;;;;24.08;9.90;;;;;;;;;;4930748;28;20058;-65
2022/03/28 09:49:41;;;;;;;23.95;9.10;;;;;;;;;;4930997;28;20333;-65
2022/03/28 09:52:17;;;;;;;28.95;9.32;;;;;;;;;;4931290;28;20381;-65
2022/03/28 09:54:55;;;;;;;28.95;9.18;;;;;;;;;;4930297;28;20125;-65
2022/03/28 09:57:25;;;;;;;24.92;8.63;;;;;;;;;;4930438;28;20369;-65
2022/03/28 09:59:52;;;;;;;22.90;8.57;;;;;;;;;;4930326;28;20452;-65
2022/03/28 10:02:20;;;;;;;26.77;9.63;;;;;;;;;;4930332;28;20410;-65
2022/03/28 10:04:49;;;;;;;21.27;7.82;;;;;;;;;;4933334;28;20462;-66
2022/03/28 10:07:14;;;;;;;21.92;8.43;;;;;;;;;;4934235;28;20373;-65
2022/03/28 10:09:40;;;;;;;21.55;8.10;;;;;;;;;;4934006;28;20373;-64
2022/03/28 10:12:06;;;;;;;24.98;8.63;;;;;;;;;;4933988;28;20398;-65
2022/03/28 10:14:32;;;;;;;25.08;8.65;;;;;;;;;;4934373;28;20422;-65
2022/03/28 10:17:00;;;;;;;22.48;8.30;;;;;;;;;;4933919;28;20508;-65
2022/03/28 10:19:26;;;;;;;19.88;8.02;;;;;;;;;;4933424;28;20424;-65
2022/03/28 10:21:51;;;;;;;22.95;8.48;;;;;;;;;;4933432;28;20358;-65
2022/03/28 10:24:22;;;;;;;18.98;7.68;;;;;;;;;;4932070;28;20441;-66
2022/03/28 10:26:52;;;;;;;18.23;7.28;;;;;;;;;;4931890;28;20431;-65
2022/03/28 10:29:22;;;;;;;18.63;8.07;;;;;;;;;;4948152;28;20326;-65
2022/03/28 10:31:56;;;;;;;22.67;7.93;;;;;;;;;;4933588;28;20074;-65
2022/03/28 10:34:59;;;;;;;16.92;7.03;;;;;;;;;;4933310;28;20394;-65
2022/03/28 10:37:30;;;;;;;21.33;7.78;;;;;;;;;;4925543;28;20421;-65
2022/03/28 10:40:23;;;;;;;22.30;7.07;;;;;;;;;;4933300;28;20030;-65
2022/03/28 10:42:53;;;;;;;17.15;6.88;;;;;;;;;;4933010;28;20531;-65
2022/03/28 10:45:21;;;;;;;22.08;8.07;;;;;;;;;;4932973;28;20133;-65
2022/03/28 10:47:50;;;;;;;17.17;6.68;;;;;;;;;;4933280;28;20445;-65
2022/03/28 10:50:51;;;;;;;17.35;6.82;;;;;;;;;;4932951;28;20460;-65
2022/03/28 10:53:33;;;;;;;19.25;6.50;;;;;;;;;;4921454;28;20461;-66
2022/03/28 10:56:05;;;;;;;15.95;6.78;;;;;;;;;;4933473;28;20073;-65
2022/03/28 10:58:36;;;;;;;15.10;6.60;;;;;;;;;;4933915;28;20522;-65
2022/03/28 11:01:13;;;;;;;19.48;6.78;;;;;;;;;;4932920;28;20469;-65
2022/03/28 11:03:45;;;;;;;20.10;6.57;;;;;;;;;;4933741;28;20160;-65
2022/03/28 11:06:12;;;;;;;22.25;8.13;;;;;;;;;;4932858;28;20030;-65
2022/03/28 11:08:44;;;;;;;20.48;6.28;;;;;;;;;;4932949;28;20349;-68
2022/03/28 11:11:16;;;;;;;20.48;6.65;;;;;;;;;;4932955;28;20322;-65
2022/03/28 11:13:41;;;;;;;15.32;6.80;;;;;;;;;;4932811;28;20444;-65
2022/03/28 11:16:19;;;;;;;17.75;6.85;;;;;;;;;;4931601;28;20418;-65
2022/03/28 11:18:57;;;;;;;14.80;6.80;;;;;;;;;;4932592;28;20454;-65
2022/03/28 11:21:24;;;;;;;13.98;6.18;;;;;;;;;;4946860;28;20441;-65
2022/03/28 11:24:07;;;;;;;16.50;6.13;;;;;;;;;;4932469;28;20373;-65
2022/03/28 11:26:32;;;;;;;13.60;6.10;;;;;;;;;;4947660;28;20381;-65
2022/03/28 11:28:58;;;;;;;17.95;6.38;;;;;;;;;;4932285;28;20466;-65
2022/03/28 11:31:23;;;;;;;13.88;7.07;;;;;;;;;;4933219;28;20485;-65
2022/03/28 11:33:48;;;;;;;15.43;5.80;;;;;;;;;;4932253;28;20319;-65
2022/03/28 11:36:18;;;;;;;15.95;5.80;;;;;;;;;;4932757;28;20516;-65
2022/03/28 11:38:52;;;;;;;18.35;6.10;;;;;;;;;;4932460;28;20295;-65
2022/03/28 11:41:21;;;;;;;14.48;5.55;;;;;;;;;;4931659;28;20375;-65
2022/03/28 11:43:51;;;;;;;13.30;5.88;;;;;;;;;;4932105;28;20615;-66
2022/03/28 11:46:19;;;;;;;13.77;5.53;;;;;;;;;;4932817;28;20354;-65
2022/03/28 11:48:59;;;;;;;13.70;5.88;;;;;;;;;;4932401;28;20327;-66
2022/03/28 11:51:27;;;;;;;12.35;5.43;;;;;;;;;;4931619;28;20528;-65
2022/03/28 11:54:06;;;;;;;13.55;5.05;;;;;;;;;;4931805;28;20026;-65
2022/03/28 11:56:33;;;;;;;;;;;;;;;;;;4933446;28;20461;-65
2022/03/28 11:59:06;;;;;;;13.82;5.03;;;;;;;;;;4932302;28;20323;-65
2022/03/28 12:01:32;;;;;;;15.93;5.28;;;;;;;;;;4931483;28;20512;-66
2022/03/28 12:03:58;;;;;;;11.02;5.25;;;;;;;;;;4931816;28;20454;-65
2022/03/28 12:06:38;;;;;;;17.73;6.47;;;;;;;;;;4932148;28;20626;-65
2022/03/28 12:09:06;;;;;;;18.55;5.32;;;;;;;;;;4930773;28;20417;-65
2022/03/28 12:11:32;;;;;;;11.55;4.82;;;;;;;;;;4932406;28;20483;-65
2022/03/28 12:13:58;;;;;;;9.43;4.50;;;;;;;;;;4946017;28;20682;-65
2022/03/28 12:16:24;;;;;;;15.90;5.07;;;;;;;;;;4931742;28;20421;-65
2022/03/28 12:18:51;;;;;;;12.82;5.20;;;;;;;;;;4931735;28;20357;-64
2022/03/28 12:21:20;;;;;;;11.15;4.88;;;;;;;;;;4932742;28;20310;-65
2022/03/28 12:23:46;;;;;;;;;;;;;;;;;;4932595;28;20337;-65
2022/03/28 12:26:11;;;;;;;9.90;4.72;;;;;;;;;;4931086;28;20218;-64
2022/03/28 12:28:38;;;;;;;12.32;4.68;;;;;;;;;;4931340;28;20392;-65
2022/03/28 12:31:06;;;;;;;11.43;5.18;;;;;;;;;;4931647;28;20382;-65
2022/03/28 12:33:42;;;;;;;9.63;4.60;;;;;;;;;;4931375;28;20521;-66
2022/03/28 12:36:14;;;;;;;9.88;4.03;;;;;;;;;;4931289;28;20611;-66
2022/03/28 12:38:39;;;;;;;14.55;5.45;;;;;;;;;;4931941;28;20353;-65
2022/03/28 12:41:08;;;;;;;10.50;4.88;;;;;;;;;;4930751;28;20349;-65
2022/03/28 12:43:34;;;;;;;;;;;;;;;;;;4931933;28;20361;-65
2022/03/28 12:46:02;;;;;;;9.77;4.07;;;;;;;;;;4930809;28;20312;-65
2022/03/28 12:48:51;;;;;;;13.25;4.97;;;;;;;;;;4931174;28;20419;-65
2022/03/28 12:51:29;;;;;;;8.02;4.30;;;;;;;;;;4931171;28;20393;-65
2022/03/28 12:54:08;;;;;;;11.23;5.03;;;;;;;;;;4931101;28;20492;-65
2022/03/28 12:56:50;;;;;;;12.77;5.28;;;;;;;;;;4930806;28;20307;-66
2022/03/28 12:59:23;;;;;;;8.00;4.10;;;;;;;;;;4932455;28;20338;-64
2022/03/28 13:01:49;;;;;;;14.45;5.07;;;;;;;;;;4931286;28;20030;-64
2022/03/28 13:04:19;;;;;;;9.93;4.47;;;;;;;;;;4930681;28;20397;-65
2022/03/28 13:06:46;;;;;;;8.10;5.57;;;;;;;;;;4929439;28;20030;-65
2022/03/28 13:09:18;;;;;;;19.63;16.52;;;;;;;;;;4931254;28;20481;-65
2022/03/28 13:11:47;;;;;;;10.88;5.63;;;;;;;;;;4931055;28;20329;-65
2022/03/28 13:14:23;;;;;;;10.13;3.67;;;;;;;;;;4930593;28;20449;-64
2022/03/28 13:16:48;;;;;;;9.27;4.45;;;;;;;;;;4930834;28;20453;-64
2022/03/28 13:19:18;;;;;;;8.38;4.18;;;;;;;;;;4931154;28;20462;-65
2022/03/28 13:21:43;;;;;;;13.32;4.57;;;;;;;;;;4931221;28;20442;-65
2022/03/28 13:24:11;;;;;;;8.18;3.88;;;;;;;;;;4930974;28;20485;-65
2022/03/28 13:26:44;;;;;;;9.68;4.05;;;;;;;;;;4931209;28;20326;-65
2022/03/28 13:29:30;;;;;;;9.13;3.72;;;;;;;;;;4930207;28;20349;-65
2022/03/28 13:31:55;;;;;;;6.07;3.33;;;;;;;;;;4932520;28;20329;-64
2022/03/28 13:34:22;;;;;;;9.50;4.05;;;;;;;;;;4930668;28;20369;-65
2022/03/28 13:36:48;;;;;;;10.65;3.90;;;;;;;;;;4930484;28;20461;-65
2022/03/28 13:39:14;;;;;;;10.10;3.92;;;;;;;;;;4932798;28;20454;-65
2022/03/28 13:41:39;;;;;;;10.95;3.95;;;;;;;;;;4933537;28;20476;-64
2022/03/28 13:44:07;;;;;;;7.82;3.72;;;;;;;;;;4934357;28;20026;-65
2022/03/28 13:46:32;;;;;;;9.00;4.07;;;;;;;;;;4934760;28;20053;-65
2022/03/28 13:48:58;;;;;;;8.77;3.80;;;;;;;;;;4934595;28;20038;-65
2022/03/28 13:51:26;;;;;;;7.97;4.47;;;;;;;;;;4933971;28;20165;-65
2022/03/28 13:53:51;;;;;;;8.82;3.72;;;;;;;;;;4934595;28;20425;-65
2022/03/28 13:56:16;;;;;;;8.20;3.90;;;;;;;;;;4934184;28;20513;-64
2022/03/28 13:58:42;;;;;;;13.85;4.70;;;;;;;;;;4932875;28;20454;-65
2022/03/28 14:01:07;;;;;;;12.73;4.88;;;;;;;;;;4935065;28;20385;-65
2022/03/28 14:03:33;;;;;;;14.80;5.05;;;;;;;;;;4934476;28;20057;-64
2022/03/28 14:06:00;;;;;;;7.70;3.72;;;;;;;;;;4934549;28;20022;-65
2022/03/28 14:08:26;;;;;;;9.07;3.88;;;;;;;;;;4933395;28;20432;-68
2022/03/28 14:10:51;;;;;;;8.73;4.03;;;;;;;;;;4933992;28;20311;-64
2022/03/28 14:13:17;;;;;;;10.75;4.38;;;;;;;;;;4933601;28;20053;-65
2022/03/28 14:15:43;;;;;;;9.48;4.10;;;;;;;;;;4933881;28;20416;-65
2022/03/28 14:18:09;;;;;;;11.65;4.50;;;;;;;;;;4934448;28;20492;-64
2022/03/28 14:20:36;;;;;;;6.90;3.65;;;;;;;;;;4933880;28;20426;-64
2022/03/28 14:23:02;;;;;;;8.25;3.20;;;;;;;;;;4933709;28;20070;-65
2022/03/28 14:25:28;;;;;;;9.32;4.18;;;;;;;;;;4933741;28;20030;-64
2022/03/28 14:27:53;;;;;;;9.13;3.85;;;;;;;;;;4933895;28;20445;-64
2022/03/28 14:30:19;;;;;;;8.85;4.57;;;;;;;;;;4934208;28;20517;-65